createdAt,value
2022-11-16T00:01:34.065Z,99010.75
2022-11-16T00:04:02.594Z,99004.69
2022-11-16T00:06:30.153Z,99047.97
2022-11-16T00:09:20.034Z,99024.78
2022-11-16T00:11:49.958Z,99070.28
2022-11-16T00:14:17.863Z,99037.69
2022-11-16T00:16:44.927Z,99026.16
2022-11-16T00:19:12.823Z,99024.78
2022-11-16T00:21:39.951Z,99073.88
2022-11-16T00:24:07.970Z,99026.47
2022-11-16T00:26:35.296Z,99034.13
2022-11-16T00:29:02.352Z,98997.69
2022-11-16T00:31:29.348Z,99016.13
2022-11-16T00:33:56.403Z,99018.34
2022-11-16T00:36:23.443Z,99039.03
2022-11-16T00:38:54.070Z,98988.66
2022-11-16T00:41:21.286Z,99003.00
2022-11-16T00:43:48.281Z,98983.69
2022-11-16T00:46:15.472Z,98974.81
2022-11-16T00:48:42.762Z,98998.19
2022-11-16T00:51:09.812Z,98951.63
2022-11-16T00:53:36.995Z,98986.38
2022-11-16T00:56:05.029Z,99005.31
2022-11-16T00:58:32.534Z,98960.47
2022-11-16T01:01:08.616Z,98926.00
2022-11-16T01:03:36.636Z,98971.38
2022-11-16T01:06:14.758Z,99027.13
2022-11-16T01:08:43.167Z,99014.19
2022-11-16T01:11:31.517Z,99009.81
2022-11-16T01:13:58.594Z,98956.88
2022-11-16T01:16:25.479Z,98998.66
2022-11-16T01:18:54.070Z,99026.28
2022-11-16T01:21:22.402Z,99004.94
2022-11-16T01:23:49.734Z,98977.94
2022-11-16T01:26:16.837Z,98978.13
2022-11-16T01:28:43.958Z,98960.03
2022-11-16T01:31:11.803Z,98946.19
2022-11-16T01:33:39.208Z,98975.94
2022-11-16T01:36:15.005Z,98888.81
2022-11-16T01:38:43.809Z,98952.94
2022-11-16T01:41:15.692Z,98984.97
2022-11-16T01:43:53.911Z,99033.78
2022-11-16T01:46:21.398Z,98992.19
2022-11-16T01:48:50.966Z,99007.16
2022-11-16T01:51:18.140Z,98977.66
2022-11-16T01:53:45.388Z,99021.41
2022-11-16T01:56:12.473Z,99008.47
2022-11-16T01:58:39.715Z,99000.41
2022-11-16T02:01:06.753Z,99021.47
2022-11-16T02:03:36.865Z,98987.47
2022-11-16T02:06:27.659Z,99023.31
2022-11-16T02:09:43.517Z,98985.44
2022-11-16T02:12:28.443Z,99031.19
2022-11-16T02:15:04.804Z,99031.81
2022-11-16T02:17:31.615Z,99027.41
2022-11-16T02:20:35.990Z,99031.38
2022-11-16T02:23:44.143Z,99039.22
2022-11-16T02:26:45.381Z,99039.31
2022-11-16T02:29:15.228Z,99037.38
2022-11-16T02:31:50.872Z,98982.84
2022-11-16T02:34:21.555Z,98984.03
2022-11-16T02:36:52.890Z,99011.50
2022-11-16T02:39:24.954Z,98964.00
2022-11-16T02:41:54.750Z,99010.97
2022-11-16T02:44:33.279Z,98957.16
2022-11-16T02:47:05.437Z,99004.00
2022-11-16T02:49:36.823Z,98992.19
2022-11-16T02:52:05.137Z,98958.75
2022-11-16T02:54:32.077Z,98971.69
2022-11-16T02:57:05.043Z,98994.22
2022-11-16T02:59:38.684Z,98983.78
2022-11-16T03:02:34.024Z,98950.34
2022-11-16T03:05:15.747Z,98966.78
2022-11-16T03:07:48.771Z,98947.75
2022-11-16T03:10:39.039Z,98950.41
2022-11-16T03:13:08.704Z,98993.47
2022-11-16T03:15:39.710Z,98964.28
2022-11-16T03:18:08.872Z,98983.50
2022-11-16T03:20:38.468Z,98958.75
2022-11-16T03:23:09.918Z,99024.16
2022-11-16T03:25:51.465Z,99028.59
2022-11-16T03:29:03.266Z,99023.41
2022-11-16T03:31:37.940Z,98975.34
2022-11-16T03:34:12.704Z,98980.09
2022-11-16T03:36:42.836Z,98988.41
2022-11-16T03:39:16.068Z,98973.44
2022-11-16T03:41:45.999Z,99004.09
2022-11-16T03:44:14.758Z,98982.22
2022-11-16T03:46:46.937Z,98945.72
2022-11-16T03:49:13.995Z,98979.63
2022-11-16T03:51:41.336Z,99011.69
2022-11-16T03:54:08.234Z,98932.84
2022-11-16T03:56:35.197Z,98983.03
2022-11-16T03:59:02.073Z,98964.81
2022-11-16T04:01:29.189Z,98986.63
2022-11-16T04:03:56.193Z,98972.69
2022-11-16T04:06:42.209Z,99020.25
2022-11-16T04:09:29.270Z,99036.81
2022-11-16T04:12:15.086Z,98984.69
2022-11-16T04:15:01.540Z,99009.38
2022-11-16T04:17:47.010Z,99011.75
2022-11-16T04:20:33.943Z,99010.09
2022-11-16T04:23:25.056Z,99041.16
2022-11-16T04:25:52.927Z,99025.44
2022-11-16T04:28:24.318Z,98990.97
2022-11-16T04:31:12.766Z,99023.50
2022-11-16T04:33:58.549Z,99019.44
2022-11-16T04:36:43.762Z,98981.91
2022-11-16T04:39:10.751Z,99016.03
2022-11-16T04:41:56.569Z,99017.22
2022-11-16T04:44:28.833Z,98975.63
2022-11-16T04:47:09.156Z,99017.59
2022-11-16T04:49:36.146Z,99015.66
2022-11-16T04:52:03.282Z,99022.69
2022-11-16T04:54:30.369Z,99017.97
2022-11-16T04:56:57.313Z,99002.44
2022-11-16T04:59:24.396Z,98999.50
2022-11-16T05:02:09.308Z,98999.03
2022-11-16T05:04:37.743Z,99011.97
2022-11-16T05:07:11.558Z,99047.91
2022-11-16T06:18:57.057Z,99077.28
2022-11-16T06:21:27.507Z,98942.47
2022-11-16T06:24:16.204Z,99092.88
2022-11-16T06:27:50.735Z,99091.13
2022-11-16T06:49:48.354Z,99055.13
2022-11-16T06:52:17.388Z,99034.56
2022-11-16T06:54:44.433Z,99038.84
2022-11-16T06:57:11.414Z,98953.47
2022-11-16T06:59:38.535Z,99006.50
2022-11-16T07:02:05.853Z,99058.56
2022-11-16T07:04:35.743Z,98986.38
2022-11-16T07:07:06.836Z,99033.34
2022-11-16T07:09:44.817Z,98999.59
2022-11-16T07:54:27.733Z,99155.94
2022-11-16T07:57:38.366Z,99160.44
2022-11-16T08:00:26.890Z,99172.63
2022-11-16T08:02:57.482Z,99141.78
2022-11-16T08:14:05.620Z,99047.84
2022-11-16T08:16:44.895Z,99144.03
2022-11-16T08:22:52.763Z,99192.94
2022-11-16T12:06:49.307Z,99107.72
2022-11-16T12:44:59.062Z,98940.00
2022-11-16T12:59:09.745Z,99055.47
2022-11-16T13:02:42.307Z,98989.88
2022-11-16T14:38:56.999Z,99000.44
2022-11-16T14:41:25.793Z,98946.81
2022-11-16T14:43:56.889Z,98923.78
2022-11-16T14:46:28.400Z,98920.50
2022-11-16T14:49:08.031Z,98918.84
2022-11-16T14:51:51.093Z,98950.09
2022-11-16T14:54:35.590Z,98994.25
2022-11-16T14:57:12.218Z,98899.94
2022-11-16T14:59:42.725Z,98913.97
2022-11-16T15:02:28.158Z,98958.91
2022-11-16T15:04:55.290Z,98949.50
2022-11-16T15:07:29.043Z,98862.09
2022-11-16T15:09:59.556Z,98891.91
2022-11-16T15:12:51.651Z,98900.50
2022-11-16T15:15:28.469Z,98903.59
2022-11-16T15:18:04.350Z,98963.00
2022-11-16T15:20:34.240Z,98829.00
2022-11-16T15:23:02.819Z,98947.84
2022-11-16T15:26:06.494Z,98943.69
2022-11-16T15:28:34.256Z,98898.31
2022-11-16T15:31:04.713Z,98869.94
2022-11-16T15:33:42.738Z,98860.50
2022-11-16T15:36:33.729Z,98944.91
2022-11-16T15:39:03.656Z,98902.91
2022-11-16T15:41:30.581Z,98913.19
2022-11-16T15:44:16.832Z,98905.94
2022-11-16T15:46:54.659Z,98923.56
2022-11-16T15:49:42.294Z,98863.00
2022-11-16T15:52:09.184Z,98924.00
2022-11-16T15:54:57.063Z,98936.84
2022-11-16T15:57:24.931Z,98890.91
2022-11-16T15:59:57.360Z,98922.97
2022-11-16T16:02:27.756Z,98903.16
2022-11-16T16:04:55.042Z,98942.75
2022-11-16T16:07:42.500Z,98917.47
2022-11-16T16:10:18.706Z,98926.06
2022-11-16T16:12:57.866Z,98929.19
2022-11-16T16:15:36.900Z,98900.88
2022-11-16T16:18:13.372Z,98899.41
2022-11-16T16:20:49.058Z,98904.59
2022-11-16T16:23:16.940Z,98853.81
2022-11-16T16:25:50.123Z,98916.53
2022-11-16T16:28:35.216Z,98860.84
2022-11-16T16:31:02.367Z,98888.66
2022-11-16T16:33:30.457Z,98890.28
2022-11-16T16:35:57.414Z,98895.06
2022-11-16T16:38:24.300Z,98872.03
2022-11-16T16:40:51.142Z,98841.22
2022-11-16T16:43:17.946Z,98866.44
2022-11-16T16:45:45.714Z,98915.19
2022-11-16T16:48:13.059Z,98838.94
2022-11-16T16:50:40.453Z,98886.16
2022-11-16T16:53:07.660Z,98867.66
2022-11-16T16:55:37.439Z,98873.47
2022-11-16T16:58:05.422Z,98908.22
2022-11-16T17:00:32.332Z,98858.97
2022-11-16T17:02:59.060Z,98877.31
2022-11-16T17:05:29.139Z,98858.78
2022-11-16T17:07:56.465Z,98875.69
2022-11-16T17:10:24.070Z,98879.81
2022-11-16T17:12:54.354Z,98893.94
2022-11-16T17:15:21.381Z,98883.25
2022-11-16T17:17:48.332Z,98838.09
2022-11-16T17:20:16.659Z,98844.59
2022-11-16T17:22:43.839Z,98853.56
2022-11-16T17:25:11.112Z,98875.97
2022-11-16T17:27:38.023Z,98832.47
2022-11-16T17:30:05.185Z,98826.13
2022-11-16T17:32:32.035Z,98856.88
2022-11-16T17:34:58.954Z,98850.28
2022-11-16T17:37:25.773Z,98823.41
2022-11-16T17:39:52.612Z,98805.53
2022-11-16T17:42:19.459Z,98834.66
2022-11-16T17:44:46.347Z,98783.38
2022-11-16T17:47:13.221Z,98813.59
2022-11-16T17:49:39.946Z,98806.13
2022-11-16T17:52:07.580Z,98798.06
2022-11-16T17:54:34.425Z,98789.25
2022-11-16T17:57:01.339Z,98812.00
2022-11-16T17:59:29.810Z,98770.63
2022-11-16T18:01:58.287Z,98801.97
2022-11-16T18:04:25.580Z,98774.78
2022-11-16T18:07:11.028Z,98754.84
2022-11-16T18:17:07.584Z,98723.03
2022-11-16T18:36:57.590Z,98672.84
2022-11-16T18:39:52.120Z,98693.78
2022-11-16T18:45:35.735Z,98825.00
2022-11-16T18:48:29.513Z,98740.22
2022-11-16T18:52:25.786Z,98772.13
2022-11-16T18:55:04.851Z,98824.47
2022-11-16T19:04:10.755Z,98708.69
2022-11-16T19:10:06.975Z,98735.78
2022-11-16T19:13:06.177Z,98739.53
2022-11-16T19:16:07.460Z,98829.44
2022-11-16T19:18:42.433Z,98684.31
2022-11-16T19:21:58.661Z,98763.63
2022-11-16T19:27:49.431Z,98766.72
2022-11-16T19:37:10.211Z,98805.81
2022-11-16T19:43:25.737Z,98709.34
2022-11-16T19:47:02.064Z,98763.25
2022-11-16T19:57:09.171Z,98704.63
2022-11-16T20:00:36.348Z,98761.59
2022-11-16T20:03:42.793Z,98655.00
2022-11-16T20:18:56.112Z,98678.06
2022-11-16T20:22:19.751Z,98684.84
2022-11-16T20:25:10.141Z,98638.50
2022-11-16T20:28:16.491Z,98742.50
2022-11-16T20:31:22.317Z,98632.56
2022-11-16T20:34:12.074Z,98734.41
2022-11-16T20:43:49.584Z,98626.50
2022-11-16T20:46:51.584Z,98622.28
2022-11-16T20:49:35.663Z,98628.59
2022-11-16T20:56:09.153Z,98643.41
2022-11-16T21:01:53.961Z,98742.16
2022-11-16T21:18:39.698Z,98661.72
2022-11-16T21:24:53.112Z,98684.50
2022-11-16T21:27:55.455Z,98571.63
2022-11-16T21:31:25.061Z,98565.59
2022-11-16T21:34:47.943Z,98559.16
2022-11-16T21:37:40.852Z,98554.16
2022-11-16T21:57:13.378Z,98620.75
2022-11-16T22:31:50.954Z,98557.28
2022-11-16T22:44:20.103Z,98635.06
2022-11-16T22:47:38.463Z,98533.59
2022-11-16T22:50:41.418Z,98553.25
2022-11-16T22:56:29.689Z,98491.75
2022-11-16T22:59:28.387Z,98486.31
2022-11-16T23:08:48.487Z,98478.09
2022-11-16T23:12:06.651Z,98612.22
2022-11-16T23:15:10.290Z,98481.16
2022-11-16T23:17:45.027Z,98516.78
2022-11-16T23:20:37.115Z,98517.38
2022-11-16T23:23:39.665Z,98512.84
2022-11-16T23:26:51.667Z,98522.25
2022-11-16T23:29:33.743Z,98446.59
2022-11-16T23:32:11.772Z,98506.06
2022-11-16T23:34:51.023Z,98452.03
2022-11-16T23:37:56.154Z,98549.78
2022-11-16T23:41:04.594Z,98398.09
2022-11-16T23:47:03.515Z,98450.97
2022-11-16T23:53:02.676Z,98437.22
2022-11-16T23:59:34.784Z,98534.69
